Observations

81.3 °F / 27.4 °C
ENE at 9 MPH
86%
76.8°F / 24.9 °C
29.81" (1009 mb)
10 mile(s)
overcast
2021.07.24 1720 UTC

Observations

Surface


Raw METARs

2021/07/24 17:20
PKWA 241720Z AUTO 06008KT 10SM SCT018 OVC110 27/25 A2981 RMK AO2 T02740249

Translated METAR

Kwajalein, Bucholz AAF, Kwajalein KMR ATOL Airport, Marshall Islands (PKWA) 08-43N 167-44E 2M
Jul 24, 2021 - 01:20 PM EDT / 2021.07.24 1720 UTC
Wind: from the ENE (060 degrees) at 9 MPH (8 KT):0
Visibility: 10 mile(s):0
Sky conditions: overcast
Temperature: 81.3 F (27.4 C)
Dew Point: 76.8 F (24.9 C)
Relative Humidity: 86%
Pressure (altimeter): 29.81 in. Hg (1009 hPa)
ob: PKWA 241720Z AUTO 06008KT 10SM SCT018 OVC110 27/25 A2981 RMK AO2 T02740249
cycle: 17



Upper Air


Latest Skew-T

Skew T Diagram

Latest Data File